sensor_id;sensor_type;location;lat;lon;timestamp;temperature;humidity
63013;DHT22;62113;45.624;11.700;2022-08-19T00:01:15;23.90;72.80
63013;DHT22;62113;45.624;11.700;2022-08-19T00:03:41;23.90;72.80
63013;DHT22;62113;45.624;11.700;2022-08-19T00:06:07;23.90;72.70
63013;DHT22;62113;45.624;11.700;2022-08-19T00:08:32;24.00;72.40
63013;DHT22;62113;45.624;11.700;2022-08-19T00:10:58;24.00;72.20
63013;DHT22;62113;45.624;11.700;2022-08-19T00:13:23;24.00;72.20
63013;DHT22;62113;45.624;11.700;2022-08-19T00:15:49;24.00;72.40
63013;DHT22;62113;45.624;11.700;2022-08-19T00:18:15;23.90;72.40
63013;DHT22;62113;45.624;11.700;2022-08-19T00:20:40;23.90;72.40
63013;DHT22;62113;45.624;11.700;2022-08-19T00:23:07;23.80;72.60
63013;DHT22;62113;45.624;11.700;2022-08-19T00:25:32;23.80;73.20
63013;DHT22;62113;45.624;11.700;2022-08-19T00:27:59;23.70;73.40
63013;DHT22;62113;45.624;11.700;2022-08-19T00:30:25;23.70;73.40
63013;DHT22;62113;45.624;11.700;2022-08-19T00:32:53;23.70;73.60
63013;DHT22;62113;45.624;11.700;2022-08-19T00:35:20;23.80;73.90
63013;DHT22;62113;45.624;11.700;2022-08-19T00:37:48;23.80;73.50
63013;DHT22;62113;45.624;11.700;2022-08-19T00:40:14;23.80;73.40
63013;DHT22;62113;45.624;11.700;2022-08-19T00:42:40;23.70;73.50
63013;DHT22;62113;45.624;11.700;2022-08-19T00:45:14;23.70;74.00
63013;DHT22;62113;45.624;11.700;2022-08-19T00:47:42;23.80;74.00
63013;DHT22;62113;45.624;11.700;2022-08-19T00:50:09;23.70;74.00
63013;DHT22;62113;45.624;11.700;2022-08-19T00:52:39;23.60;74.20
63013;DHT22;62113;45.624;11.700;2022-08-19T00:55:08;23.60;74.30
63013;DHT22;62113;45.624;11.700;2022-08-19T00:57:39;23.60;74.60
63013;DHT22;62113;45.624;11.700;2022-08-19T01:00:10;23.50;74.80
63013;DHT22;62113;45.624;11.700;2022-08-19T01:02:37;23.50;74.60
63013;DHT22;62113;45.624;11.700;2022-08-19T01:05:08;23.50;75.00
63013;DHT22;62113;45.624;11.700;2022-08-19T01:07:35;23.40;75.40
63013;DHT22;62113;45.624;11.700;2022-08-19T01:10:14;23.30;75.90
63013;DHT22;62113;45.624;11.700;2022-08-19T01:12:42;23.30;76.40
63013;DHT22;62113;45.624;11.700;2022-08-19T01:15:10;23.30;77.00
63013;DHT22;62113;45.624;11.700;2022-08-19T01:17:38;23.30;77.00
63013;DHT22;62113;45.624;11.700;2022-08-19T01:20:06;23.30;76.60
63013;DHT22;62113;45.624;11.700;2022-08-19T01:22:50;23.30;76.50
63013;DHT22;62113;45.624;11.700;2022-08-19T01:25:18;23.30;76.40
63013;DHT22;62113;45.624;11.700;2022-08-19T01:27:47;23.30;76.30
63013;DHT22;62113;45.624;11.700;2022-08-19T01:30:16;23.40;76.10
63013;DHT22;62113;45.624;11.700;2022-08-19T01:32:42;23.50;75.70
63013;DHT22;62113;45.624;11.700;2022-08-19T01:35:10;23.40;75.20
63013;DHT22;62113;45.624;11.700;2022-08-19T01:37:52;23.40;74.80
63013;DHT22;62113;45.624;11.700;2022-08-19T01:40:19;23.30;74.80
63013;DHT22;62113;45.624;11.700;2022-08-19T01:42:49;23.30;74.50
63013;DHT22;62113;45.624;11.700;2022-08-19T01:45:16;23.20;74.60
63013;DHT22;62113;45.624;11.700;2022-08-19T01:47:42;23.20;75.20
63013;DHT22;62113;45.624;11.700;2022-08-19T01:50:09;23.10;75.30
63013;DHT22;62113;45.624;11.700;2022-08-19T01:52:38;23.10;75.20
63013;DHT22;62113;45.624;11.700;2022-08-19T01:55:05;23.20;75.40
63013;DHT22;62113;45.624;11.700;2022-08-19T01:57:32;23.10;75.20
63013;DHT22;62113;45.624;11.700;2022-08-19T01:59:58;23.10;75.60
63013;DHT22;62113;45.624;11.700;2022-08-19T02:02:25;23.10;76.00
63013;DHT22;62113;45.624;11.700;2022-08-19T02:04:50;23.10;75.90
63013;DHT22;62113;45.624;11.700;2022-08-19T02:07:19;23.10;75.90
63013;DHT22;62113;45.624;11.700;2022-08-19T02:09:47;23.10;76.10
63013;DHT22;62113;45.624;11.700;2022-08-19T02:12:13;23.30;75.40
63013;DHT22;62113;45.624;11.700;2022-08-19T02:14:39;23.30;74.90
63013;DHT22;62113;45.624;11.700;2022-08-19T02:17:05;23.20;75.00
63013;DHT22;62113;45.624;11.700;2022-08-19T02:19:30;23.10;75.20
63013;DHT22;62113;45.624;11.700;2022-08-19T02:21:58;23.10;75.70
63013;DHT22;62113;45.624;11.700;2022-08-19T02:24:24;23.10;75.90
63013;DHT22;62113;45.624;11.700;2022-08-19T02:26:50;23.10;76.00
63013;DHT22;62113;45.624;11.700;2022-08-19T02:29:16;23.00;76.30
63013;DHT22;62113;45.624;11.700;2022-08-19T02:31:42;23.00;76.70
63013;DHT22;62113;45.624;11.700;2022-08-19T02:34:08;23.00;76.60
63013;DHT22;62113;45.624;11.700;2022-08-19T02:36:33;22.90;76.60
63013;DHT22;62113;45.624;11.700;2022-08-19T02:38:59;22.90;77.10
63013;DHT22;62113;45.624;11.700;2022-08-19T02:41:28;22.80;76.80
63013;DHT22;62113;45.624;11.700;2022-08-19T02:43:55;22.80;76.90
63013;DHT22;62113;45.624;11.700;2022-08-19T02:46:25;22.80;77.10
63013;DHT22;62113;45.624;11.700;2022-08-19T02:48:54;22.80;77.10
63013;DHT22;62113;45.624;11.700;2022-08-19T02:51:26;22.80;77.10
63013;DHT22;62113;45.624;11.700;2022-08-19T02:53:53;22.70;77.20
63013;DHT22;62113;45.624;11.700;2022-08-19T02:56:19;22.70;77.30
63013;DHT22;62113;45.624;11.700;2022-08-19T02:58:46;22.70;77.30
63013;DHT22;62113;45.624;11.700;2022-08-19T03:01:38;22.70;77.30
63013;DHT22;62113;45.624;11.700;2022-08-19T03:04:08;22.70;77.30
63013;DHT22;62113;45.624;11.700;2022-08-19T03:06:37;22.70;77.30
63013;DHT22;62113;45.624;11.700;2022-08-19T03:09:03;22.70;77.20
63013;DHT22;62113;45.624;11.700;2022-08-19T03:11:30;22.80;77.10
63013;DHT22;62113;45.624;11.700;2022-08-19T03:13:57;22.80;77.10
63013;DHT22;62113;45.624;11.700;2022-08-19T03:16:25;22.80;76.70
63013;DHT22;62113;45.624;11.700;2022-08-19T03:18:52;22.80;76.50
63013;DHT22;62113;45.624;11.700;2022-08-19T03:21:25;22.90;76.30
63013;DHT22;62113;45.624;11.700;2022-08-19T03:23:54;22.80;76.10
63013;DHT22;62113;45.624;11.700;2022-08-19T03:26:20;22.80;76.00
63013;DHT22;62113;45.624;11.700;2022-08-19T03:28:46;22.90;75.60
63013;DHT22;62113;45.624;11.700;2022-08-19T03:31:16;22.90;74.70
63013;DHT22;62113;45.624;11.700;2022-08-19T03:33:42;23.00;73.50
63013;DHT22;62113;45.624;11.700;2022-08-19T03:38:42;23.00;72.80
63013;DHT22;62113;45.624;11.700;2022-08-19T03:41:12;22.80;73.30
63013;DHT22;62113;45.624;11.700;2022-08-19T03:43:39;22.80;73.70
63013;DHT22;62113;45.624;11.700;2022-08-19T03:46:11;22.80;73.50
63013;DHT22;62113;45.624;11.700;2022-08-19T03:48:38;22.80;73.00
63013;DHT22;62113;45.624;11.700;2022-08-19T03:51:05;22.80;72.70
63013;DHT22;62113;45.624;11.700;2022-08-19T03:53:31;22.80;72.40
63013;DHT22;62113;45.624;11.700;2022-08-19T03:55:57;22.80;72.20
63013;DHT22;62113;45.624;11.700;2022-08-19T03:58:28;22.70;72.50
63013;DHT22;62113;45.624;11.700;2022-08-19T04:00:57;22.70;72.50
63013;DHT22;62113;45.624;11.700;2022-08-19T04:03:26;22.70;72.70
63013;DHT22;62113;45.624;11.700;2022-08-19T04:05:53;22.70;73.10
63013;DHT22;62113;45.624;11.700;2022-08-19T04:08:19;22.60;73.30
63013;DHT22;62113;45.624;11.700;2022-08-19T04:10:46;22.60;73.60
63013;DHT22;62113;45.624;11.700;2022-08-19T04:13:12;22.70;73.60
63013;DHT22;62113;45.624;11.700;2022-08-19T04:15:42;22.60;73.70
63013;DHT22;62113;45.624;11.700;2022-08-19T04:18:09;22.60;73.80
63013;DHT22;62113;45.624;11.700;2022-08-19T04:20:40;22.60;73.90
63013;DHT22;62113;45.624;11.700;2022-08-19T04:23:05;22.50;73.90
63013;DHT22;62113;45.624;11.700;2022-08-19T04:25:39;22.50;74.00
63013;DHT22;62113;45.624;11.700;2022-08-19T04:28:05;22.40;74.10
63013;DHT22;62113;45.624;11.700;2022-08-19T04:30:37;22.50;73.20
63013;DHT22;62113;45.624;11.700;2022-08-19T04:33:04;22.50;73.30
63013;DHT22;62113;45.624;11.700;2022-08-19T04:35:38;22.50;73.60
63013;DHT22;62113;45.624;11.700;2022-08-19T04:38:05;22.50;73.80
63013;DHT22;62113;45.624;11.700;2022-08-19T04:40:31;22.40;74.00
63013;DHT22;62113;45.624;11.700;2022-08-19T04:43:15;22.40;74.30
63013;DHT22;62113;45.624;11.700;2022-08-19T04:45:43;22.40;74.40
63013;DHT22;62113;45.624;11.700;2022-08-19T04:48:09;22.40;74.40
63013;DHT22;62113;45.624;11.700;2022-08-19T04:50:35;22.40;74.30
63013;DHT22;62113;45.624;11.700;2022-08-19T04:53:01;22.40;74.50
63013;DHT22;62113;45.624;11.700;2022-08-19T04:55:26;22.40;74.60
63013;DHT22;62113;45.624;11.700;2022-08-19T04:57:55;22.40;74.70
63013;DHT22;62113;45.624;11.700;2022-08-19T05:00:21;22.40;74.90
63013;DHT22;62113;45.624;11.700;2022-08-19T05:02:47;22.40;74.80
63013;DHT22;62113;45.624;11.700;2022-08-19T05:05:15;22.40;75.00
63013;DHT22;62113;45.624;11.700;2022-08-19T05:07:40;22.40;74.80
63013;DHT22;62113;45.624;11.700;2022-08-19T05:10:07;22.30;75.50
63013;DHT22;62113;45.624;11.700;2022-08-19T05:12:33;22.30;75.70
63013;DHT22;62113;45.624;11.700;2022-08-19T05:14:59;22.30;76.40
63013;DHT22;62113;45.624;11.700;2022-08-19T05:17:27;22.30;76.30
63013;DHT22;62113;45.624;11.700;2022-08-19T05:19:52;22.40;76.50
63013;DHT22;62113;45.624;11.700;2022-08-19T05:22:37;22.40;76.60
63013;DHT22;62113;45.624;11.700;2022-08-19T05:25:09;22.40;76.70
63013;DHT22;62113;45.624;11.700;2022-08-19T05:27:35;22.40;76.60
63013;DHT22;62113;45.624;11.700;2022-08-19T05:30:01;22.40;76.70
63013;DHT22;62113;45.624;11.700;2022-08-19T05:32:27;22.40;77.00
63013;DHT22;62113;45.624;11.700;2022-08-19T05:34:53;22.40;76.70
63013;DHT22;62113;45.624;11.700;2022-08-19T05:37:19;22.50;76.80
63013;DHT22;62113;45.624;11.700;2022-08-19T05:39:44;22.50;76.60
63013;DHT22;62113;45.624;11.700;2022-08-19T05:42:11;22.70;76.70
63013;DHT22;62113;45.624;11.700;2022-08-19T05:44:42;22.70;76.60
63013;DHT22;62113;45.624;11.700;2022-08-19T05:47:12;22.80;76.70
63013;DHT22;62113;45.624;11.700;2022-08-19T05:49:38;22.90;76.60
63013;DHT22;62113;45.624;11.700;2022-08-19T05:52:06;23.20;76.60
63013;DHT22;62113;45.624;11.700;2022-08-19T05:54:33;23.30;76.50
63013;DHT22;62113;45.624;11.700;2022-08-19T05:57:01;23.50;76.10
63013;DHT22;62113;45.624;11.700;2022-08-19T05:59:27;23.70;75.40
63013;DHT22;62113;45.624;11.700;2022-08-19T06:01:53;24.00;75.10
63013;DHT22;62113;45.624;11.700;2022-08-19T06:04:22;24.20;74.60
63013;DHT22;62113;45.624;11.700;2022-08-19T06:06:51;24.50;73.70
63013;DHT22;62113;45.624;11.700;2022-08-19T06:09:18;24.70;73.20
63013;DHT22;62113;45.624;11.700;2022-08-19T06:11:47;25.20;72.60
63013;DHT22;62113;45.624;11.700;2022-08-19T06:14:15;25.80;72.40
63013;DHT22;62113;45.624;11.700;2022-08-19T06:16:42;26.40;70.40
63013;DHT22;62113;45.624;11.700;2022-08-19T06:19:12;26.80;68.30
63013;DHT22;62113;45.624;11.700;2022-08-19T06:21:40;27.00;66.70
63013;DHT22;62113;45.624;11.700;2022-08-19T06:24:08;27.00;65.10
63013;DHT22;62113;45.624;11.700;2022-08-19T06:26:36;26.80;65.20
63013;DHT22;62113;45.624;11.700;2022-08-19T06:29:04;26.60;65.90
63013;DHT22;62113;45.624;11.700;2022-08-19T06:31:32;26.40;65.90
63013;DHT22;62113;45.624;11.700;2022-08-19T06:34:03;26.20;66.30
63013;DHT22;62113;45.624;11.700;2022-08-19T06:36:34;26.00;66.60
63013;DHT22;62113;45.624;11.700;2022-08-19T06:39:22;25.90;67.20
63013;DHT22;62113;45.624;11.700;2022-08-19T06:41:54;26.00;67.30
63013;DHT22;62113;45.624;11.700;2022-08-19T06:44:21;26.20;67.60
63013;DHT22;62113;45.624;11.700;2022-08-19T06:46:47;26.50;66.90
63013;DHT22;62113;45.624;11.700;2022-08-19T06:49:14;26.60;66.20
63013;DHT22;62113;45.624;11.700;2022-08-19T06:51:44;26.60;65.00
63013;DHT22;62113;45.624;11.700;2022-08-19T06:54:14;26.50;65.40
63013;DHT22;62113;45.624;11.700;2022-08-19T06:56:39;26.40;65.70
63013;DHT22;62113;45.624;11.700;2022-08-19T06:59:08;26.20;66.00
63013;DHT22;62113;45.624;11.700;2022-08-19T07:01:38;25.90;66.60
63013;DHT22;62113;45.624;11.700;2022-08-19T07:04:06;25.70;67.00
63013;DHT22;62113;45.624;11.700;2022-08-19T07:06:32;25.50;67.50
63013;DHT22;62113;45.624;11.700;2022-08-19T07:08:58;25.40;67.90
63013;DHT22;62113;45.624;11.700;2022-08-19T07:11:24;25.20;69.00
63013;DHT22;62113;45.624;11.700;2022-08-19T07:13:50;25.00;69.20
63013;DHT22;62113;45.624;11.700;2022-08-19T07:16:18;24.80;69.60
63013;DHT22;62113;45.624;11.700;2022-08-19T07:18:48;24.70;69.50
63013;DHT22;62113;45.624;11.700;2022-08-19T07:21:25;24.70;69.60
63013;DHT22;62113;45.624;11.700;2022-08-19T07:23:54;24.60;70.00
63013;DHT22;62113;45.624;11.700;2022-08-19T07:26:26;24.50;70.40
63013;DHT22;62113;45.624;11.700;2022-08-19T07:28:52;24.30;70.40
63013;DHT22;62113;45.624;11.700;2022-08-19T07:31:21;24.20;70.50
63013;DHT22;62113;45.624;11.700;2022-08-19T07:33:49;24.20;70.70
63013;DHT22;62113;45.624;11.700;2022-08-19T07:36:19;24.20;70.80
63013;DHT22;62113;45.624;11.700;2022-08-19T07:38:48;24.20;70.90
63013;DHT22;62113;45.624;11.700;2022-08-19T07:41:19;24.20;71.00
63013;DHT22;62113;45.624;11.700;2022-08-19T07:43:46;24.10;71.00
63013;DHT22;62113;45.624;11.700;2022-08-19T07:46:12;24.20;71.10
63013;DHT22;62113;45.624;11.700;2022-08-19T07:48:40;24.10;71.00
63013;DHT22;62113;45.624;11.700;2022-08-19T07:51:07;24.10;71.10
63013;DHT22;62113;45.624;11.700;2022-08-19T07:53:34;24.00;71.30
63013;DHT22;62113;45.624;11.700;2022-08-19T07:56:00;24.00;71.50
63013;DHT22;62113;45.624;11.700;2022-08-19T07:58:28;23.90;72.00
63013;DHT22;62113;45.624;11.700;2022-08-19T08:00:54;23.80;72.20
63013;DHT22;62113;45.624;11.700;2022-08-19T08:03:20;23.80;72.70
63013;DHT22;62113;45.624;11.700;2022-08-19T08:06:07;23.70;72.40
63013;DHT22;62113;45.624;11.700;2022-08-19T08:08:51;23.70;72.30
63013;DHT22;62113;45.624;11.700;2022-08-19T08:11:35;23.70;72.60
63013;DHT22;62113;45.624;11.700;2022-08-19T08:14:01;23.70;72.40
63013;DHT22;62113;45.624;11.700;2022-08-19T08:16:28;23.70;72.20
63013;DHT22;62113;45.624;11.700;2022-08-19T08:18:57;23.80;72.10
63013;DHT22;62113;45.624;11.700;2022-08-19T08:21:22;23.80;72.00
63013;DHT22;62113;45.624;11.700;2022-08-19T08:23:48;23.80;72.30
63013;DHT22;62113;45.624;11.700;2022-08-19T08:26:14;23.80;72.20
63013;DHT22;62113;45.624;11.700;2022-08-19T08:28:40;23.80;72.70
63013;DHT22;62113;45.624;11.700;2022-08-19T08:31:06;23.70;72.30
63013;DHT22;62113;45.624;11.700;2022-08-19T08:33:31;23.70;72.30
63013;DHT22;62113;45.624;11.700;2022-08-19T08:35:57;23.80;72.00
63013;DHT22;62113;45.624;11.700;2022-08-19T08:38:23;23.80;71.90
63013;DHT22;62113;45.624;11.700;2022-08-19T08:40:54;23.70;72.10
63013;DHT22;62113;45.624;11.700;2022-08-19T08:43:36;23.70;72.60
63013;DHT22;62113;45.624;11.700;2022-08-19T08:46:09;23.70;72.80
63013;DHT22;62113;45.624;11.700;2022-08-19T08:49:01;23.60;73.20
63013;DHT22;62113;45.624;11.700;2022-08-19T08:51:36;23.60;73.80
63013;DHT22;62113;45.624;11.700;2022-08-19T08:54:06;23.50;73.90
63013;DHT22;62113;45.624;11.700;2022-08-19T08:56:32;23.40;74.40
63013;DHT22;62113;45.624;11.700;2022-08-19T08:59:07;23.20;74.40
63013;DHT22;62113;45.624;11.700;2022-08-19T09:01:35;23.10;74.20
63013;DHT22;62113;45.624;11.700;2022-08-19T09:04:04;23.10;74.30
63013;DHT22;62113;45.624;11.700;2022-08-19T09:06:53;23.30;74.00
63013;DHT22;62113;45.624;11.700;2022-08-19T09:09:32;23.20;73.60
63013;DHT22;62113;45.624;11.700;2022-08-19T09:17:25;23.50;71.90
63013;DHT22;62113;45.624;11.700;2022-08-19T09:20:18;23.70;71.80
63013;DHT22;62113;45.624;11.700;2022-08-19T09:22:44;23.70;71.20
63013;DHT22;62113;45.624;11.700;2022-08-19T09:25:12;23.70;70.80
63013;DHT22;62113;45.624;11.700;2022-08-19T09:27:40;23.70;70.70
63013;DHT22;62113;45.624;11.700;2022-08-19T09:30:07;23.70;71.30
63013;DHT22;62113;45.624;11.700;2022-08-19T09:32:34;23.80;71.10
63013;DHT22;62113;45.624;11.700;2022-08-19T09:35:00;23.70;70.80
63013;DHT22;62113;45.624;11.700;2022-08-19T09:37:27;23.70;71.00
63013;DHT22;62113;45.624;11.700;2022-08-19T09:39:53;23.70;70.70
63013;DHT22;62113;45.624;11.700;2022-08-19T09:42:19;23.80;70.60
63013;DHT22;62113;45.624;11.700;2022-08-19T09:44:45;23.80;70.70
63013;DHT22;62113;45.624;11.700;2022-08-19T09:47:13;23.80;70.80
63013;DHT22;62113;45.624;11.700;2022-08-19T09:49:39;23.90;70.60
63013;DHT22;62113;45.624;11.700;2022-08-19T09:52:08;24.00;70.30
63013;DHT22;62113;45.624;11.700;2022-08-19T09:54:34;24.10;70.00
63013;DHT22;62113;45.624;11.700;2022-08-19T09:57:00;24.20;69.50
63013;DHT22;62113;45.624;11.700;2022-08-19T09:59:26;24.40;69.00
63013;DHT22;62113;45.624;11.700;2022-08-19T10:01:52;24.50;68.70
63013;DHT22;62113;45.624;11.700;2022-08-19T10:04:18;24.70;68.20
63013;DHT22;62113;45.624;11.700;2022-08-19T10:06:45;24.70;68.30
63013;DHT22;62113;45.624;11.700;2022-08-19T10:09:15;24.80;67.90
63013;DHT22;62113;45.624;11.700;2022-08-19T10:11:43;24.90;67.00
63013;DHT22;62113;45.624;11.700;2022-08-19T10:14:14;25.10;66.60
63013;DHT22;62113;45.624;11.700;2022-08-19T10:16:40;25.20;66.70
63013;DHT22;62113;45.624;11.700;2022-08-19T10:19:07;25.20;67.10
63013;DHT22;62113;45.624;11.700;2022-08-19T10:21:33;25.30;66.00
63013;DHT22;62113;45.624;11.700;2022-08-19T10:24:00;25.40;65.50
63013;DHT22;62113;45.624;11.700;2022-08-19T10:26:31;25.50;65.00
63013;DHT22;62113;45.624;11.700;2022-08-19T10:28:57;25.60;64.40
63013;DHT22;62113;45.624;11.700;2022-08-19T10:31:28;25.70;64.40
63013;DHT22;62113;45.624;11.700;2022-08-19T10:33:54;25.70;64.20
63013;DHT22;62113;45.624;11.700;2022-08-19T10:36:25;25.80;64.00
63013;DHT22;62113;45.624;11.700;2022-08-19T10:38:53;25.90;63.60
63013;DHT22;62113;45.624;11.700;2022-08-19T10:41:21;25.90;63.50
63013;DHT22;62113;45.624;11.700;2022-08-19T10:43:51;26.00;63.60
63013;DHT22;62113;45.624;11.700;2022-08-19T10:46:18;26.00;63.50
63013;DHT22;62113;45.624;11.700;2022-08-19T10:48:44;26.00;63.70
63013;DHT22;62113;45.624;11.700;2022-08-19T10:51:10;26.00;63.40
63013;DHT22;62113;45.624;11.700;2022-08-19T10:53:55;26.10;63.20
63013;DHT22;62113;45.624;11.700;2022-08-19T10:56:22;26.10;63.40
63013;DHT22;62113;45.624;11.700;2022-08-19T10:59:06;26.10;63.30
63013;DHT22;62113;45.624;11.700;2022-08-19T11:01:33;26.20;63.40
63013;DHT22;62113;45.624;11.700;2022-08-19T11:04:01;26.20;64.30
63013;DHT22;62113;45.624;11.700;2022-08-19T11:06:27;26.20;64.50
63013;DHT22;62113;45.624;11.700;2022-08-19T11:08:56;26.20;64.50
63013;DHT22;62113;45.624;11.700;2022-08-19T11:11:22;26.30;64.50
63013;DHT22;62113;45.624;11.700;2022-08-19T11:13:48;26.40;64.40
63013;DHT22;62113;45.624;11.700;2022-08-19T11:16:25;26.50;63.60
63013;DHT22;62113;45.624;11.700;2022-08-19T11:18:57;26.50;63.40
63013;DHT22;62113;45.624;11.700;2022-08-19T11:21:29;26.60;63.30
63013;DHT22;62113;45.624;11.700;2022-08-19T11:24:01;26.60;63.80
63013;DHT22;62113;45.624;11.700;2022-08-19T11:26:28;26.60;63.60
63013;DHT22;62113;45.624;11.700;2022-08-19T11:28:55;26.70;63.30
63013;DHT22;62113;45.624;11.700;2022-08-19T11:31:23;26.60;62.10
63013;DHT22;62113;45.624;11.700;2022-08-19T11:33:49;26.40;61.90
63013;DHT22;62113;45.624;11.700;2022-08-19T11:36:20;26.20;62.20
63013;DHT22;62113;45.624;11.700;2022-08-19T11:38:47;26.10;63.20
63013;DHT22;62113;45.624;11.700;2022-08-19T11:41:14;25.90;63.30
63013;DHT22;62113;45.624;11.700;2022-08-19T11:43:41;25.70;63.40
63013;DHT22;62113;45.624;11.700;2022-08-19T11:46:09;25.60;64.30
63013;DHT22;62113;45.624;11.700;2022-08-19T11:48:36;25.50;64.50
63013;DHT22;62113;45.624;11.700;2022-08-19T11:51:13;25.50;65.10
63013;DHT22;62113;45.624;11.700;2022-08-19T11:53:40;25.40;65.50
63013;DHT22;62113;45.624;11.700;2022-08-19T11:56:07;25.30;65.30
63013;DHT22;62113;45.624;11.700;2022-08-19T11:58:33;25.30;66.50
63013;DHT22;62113;45.624;11.700;2022-08-19T12:00:59;25.20;66.70
63013;DHT22;62113;45.624;11.700;2022-08-19T12:03:25;25.20;67.00
63013;DHT22;62113;45.624;11.700;2022-08-19T12:05:50;25.20;67.40
63013;DHT22;62113;45.624;11.700;2022-08-19T12:08:16;25.20;67.80
63013;DHT22;62113;45.624;11.700;2022-08-19T12:10:43;25.10;67.60
63013;DHT22;62113;45.624;11.700;2022-08-19T12:13:10;25.00;67.50
63013;DHT22;62113;45.624;11.700;2022-08-19T12:15:39;25.00;67.70
63013;DHT22;62113;45.624;11.700;2022-08-19T12:18:08;25.00;67.50
63013;DHT22;62113;45.624;11.700;2022-08-19T12:20:38;25.00;67.00
63013;DHT22;62113;45.624;11.700;2022-08-19T12:23:05;25.20;66.10
63013;DHT22;62113;45.624;11.700;2022-08-19T12:25:32;25.20;66.30
63013;DHT22;62113;45.624;11.700;2022-08-19T12:27:58;25.30;64.50
63013;DHT22;62113;45.624;11.700;2022-08-19T12:30:24;25.30;64.90
63013;DHT22;62113;45.624;11.700;2022-08-19T12:32:50;25.30;64.90
63013;DHT22;62113;45.624;11.700;2022-08-19T12:35:16;25.40;65.20
63013;DHT22;62113;45.624;11.700;2022-08-19T12:37:43;25.60;65.30
63013;DHT22;62113;45.624;11.700;2022-08-19T12:40:11;25.70;64.70
63013;DHT22;62113;45.624;11.700;2022-08-19T12:42:39;25.80;63.90
63013;DHT22;62113;45.624;11.700;2022-08-19T12:45:09;25.90;63.90
63013;DHT22;62113;45.624;11.700;2022-08-19T12:47:35;26.10;63.70
63013;DHT22;62113;45.624;11.700;2022-08-19T12:50:02;26.30;63.50
63013;DHT22;62113;45.624;11.700;2022-08-19T12:52:28;26.50;63.00
63013;DHT22;62113;45.624;11.700;2022-08-19T12:54:55;26.70;62.30
63013;DHT22;62113;45.624;11.700;2022-08-19T12:57:26;26.90;61.60
63013;DHT22;62113;45.624;11.700;2022-08-19T12:59:53;27.10;61.10
63013;DHT22;62113;45.624;11.700;2022-08-19T13:02:19;27.20;60.80
63013;DHT22;62113;45.624;11.700;2022-08-19T13:04:45;27.30;60.70
63013;DHT22;62113;45.624;11.700;2022-08-19T13:07:12;27.40;60.30
63013;DHT22;62113;45.624;11.700;2022-08-19T13:09:37;27.60;59.70
63013;DHT22;62113;45.624;11.700;2022-08-19T13:12:05;27.70;59.20
63013;DHT22;62113;45.624;11.700;2022-08-19T13:14:34;27.70;58.60
63013;DHT22;62113;45.624;11.700;2022-08-19T13:17:00;27.90;58.30
63013;DHT22;62113;45.624;11.700;2022-08-19T13:19:26;28.00;57.60
63013;DHT22;62113;45.624;11.700;2022-08-19T13:21:52;28.10;57.40
63013;DHT22;62113;45.624;11.700;2022-08-19T13:24:20;28.20;57.00
63013;DHT22;62113;45.624;11.700;2022-08-19T13:26:46;28.20;56.70
63013;DHT22;62113;45.624;11.700;2022-08-19T13:29:11;28.30;56.50
63013;DHT22;62113;45.624;11.700;2022-08-19T13:31:55;28.30;56.40
63013;DHT22;62113;45.624;11.700;2022-08-19T13:34:40;28.30;56.00
63013;DHT22;62113;45.624;11.700;2022-08-19T13:37:05;28.30;55.30
63013;DHT22;62113;45.624;11.700;2022-08-19T13:39:32;28.30;55.30
63013;DHT22;62113;45.624;11.700;2022-08-19T13:41:59;28.40;55.50
63013;DHT22;62113;45.624;11.700;2022-08-19T13:44:26;28.40;55.60
63013;DHT22;62113;45.624;11.700;2022-08-19T13:46:59;28.50;55.50
63013;DHT22;62113;45.624;11.700;2022-08-19T13:49:28;28.50;55.20
63013;DHT22;62113;45.624;11.700;2022-08-19T13:51:56;28.50;55.50
63013;DHT22;62113;45.624;11.700;2022-08-19T13:54:22;28.60;56.50
63013;DHT22;62113;45.624;11.700;2022-08-19T13:56:48;28.60;56.90
63013;DHT22;62113;45.624;11.700;2022-08-19T13:59:13;28.70;56.90
63013;DHT22;62113;45.624;11.700;2022-08-19T14:01:40;28.70;56.90
63013;DHT22;62113;45.624;11.700;2022-08-19T14:04:07;28.70;57.40
63013;DHT22;62113;45.624;11.700;2022-08-19T14:06:33;28.70;57.50
63013;DHT22;62113;45.624;11.700;2022-08-19T14:08:59;28.80;57.60
63013;DHT22;62113;45.624;11.700;2022-08-19T14:11:24;28.90;57.50
63013;DHT22;62113;45.624;11.700;2022-08-19T14:13:50;28.90;57.20
63013;DHT22;62113;45.624;11.700;2022-08-19T14:16:16;28.80;56.70
63013;DHT22;62113;45.624;11.700;2022-08-19T14:18:43;28.90;56.60
63013;DHT22;62113;45.624;11.700;2022-08-19T14:21:15;28.90;56.10
63013;DHT22;62113;45.624;11.700;2022-08-19T14:23:42;29.00;56.00
63013;DHT22;62113;45.624;11.700;2022-08-19T14:26:10;28.90;56.10
63013;DHT22;62113;45.624;11.700;2022-08-19T14:28:37;28.90;56.10
63013;DHT22;62113;45.624;11.700;2022-08-19T14:31:03;29.00;56.00
63013;DHT22;62113;45.624;11.700;2022-08-19T14:33:28;29.00;56.00
63013;DHT22;62113;45.624;11.700;2022-08-19T14:35:54;29.00;56.00
63013;DHT22;62113;45.624;11.700;2022-08-19T14:38:20;29.00;56.00
63013;DHT22;62113;45.624;11.700;2022-08-19T14:40:45;29.00;55.70
63013;DHT22;62113;45.624;11.700;2022-08-19T14:43:12;29.10;55.50
63013;DHT22;62113;45.624;11.700;2022-08-19T14:45:39;29.10;54.30
63013;DHT22;62113;45.624;11.700;2022-08-19T14:48:06;29.10;54.60
63013;DHT22;62113;45.624;11.700;2022-08-19T14:50:33;29.10;54.40
63013;DHT22;62113;45.624;11.700;2022-08-19T14:53:05;29.00;54.30
63013;DHT22;62113;45.624;11.700;2022-08-19T14:55:31;29.00;53.70
63013;DHT22;62113;45.624;11.700;2022-08-19T14:57:57;29.00;53.80
63013;DHT22;62113;45.624;11.700;2022-08-19T15:00:23;29.00;53.70
63013;DHT22;62113;45.624;11.700;2022-08-19T15:02:50;29.00;53.70
63013;DHT22;62113;45.624;11.700;2022-08-19T15:05:15;29.00;54.20
63013;DHT22;62113;45.624;11.700;2022-08-19T15:07:42;28.90;53.60
63013;DHT22;62113;45.624;11.700;2022-08-19T15:10:09;28.80;53.30
63013;DHT22;62113;45.624;11.700;2022-08-19T15:12:36;28.80;53.30
63013;DHT22;62113;45.624;11.700;2022-08-19T15:15:09;28.70;53.50
63013;DHT22;62113;45.624;11.700;2022-08-19T15:17:38;28.70;52.80
63013;DHT22;62113;45.624;11.700;2022-08-19T15:20:05;28.60;53.40
63013;DHT22;62113;45.624;11.700;2022-08-19T15:22:31;28.60;53.70
63013;DHT22;62113;45.624;11.700;2022-08-19T15:24:57;28.50;54.30
63013;DHT22;62113;45.624;11.700;2022-08-19T15:27:22;28.50;54.30
63013;DHT22;62113;45.624;11.700;2022-08-19T15:29:48;28.50;54.70